createdAt,value
2018-05-29T00:00:06.962Z,888.44
2018-05-29T00:01:06.956Z,888.42
2018-05-29T00:02:06.948Z,888.42
2018-05-29T00:03:06.939Z,888.40
2018-05-29T00:04:06.932Z,888.41
2018-05-29T00:05:06.917Z,888.38
2018-05-29T00:06:06.911Z,888.39
2018-05-29T00:07:06.909Z,888.39
2018-05-29T00:08:06.899Z,888.34
2018-05-29T00:09:06.891Z,888.33
2018-05-29T00:10:06.880Z,888.30
2018-05-29T00:11:06.874Z,888.31
2018-05-29T00:12:06.860Z,888.32
2018-05-29T00:13:06.856Z,888.30
2018-05-29T00:14:06.846Z,888.28
2018-05-29T00:15:06.838Z,888.26
2018-05-29T00:16:06.838Z,888.29
2018-05-29T00:17:06.826Z,888.28
2018-05-29T00:18:06.815Z,888.25
2018-05-29T00:19:06.805Z,888.27
2018-05-29T00:20:06.798Z,888.24
2018-05-29T00:21:06.789Z,888.21
2018-05-29T00:22:06.779Z,888.25
2018-05-29T00:23:06.771Z,888.24
2018-05-29T00:24:06.763Z,888.22
2018-05-29T00:25:06.755Z,888.23
2018-05-29T00:26:06.746Z,888.20
2018-05-29T00:27:06.740Z,888.18
2018-05-29T00:28:06.732Z,888.17
2018-05-29T00:29:06.724Z,888.15
2018-05-29T00:30:06.716Z,888.15
2018-05-29T00:31:06.705Z,888.13
2018-05-29T00:32:06.703Z,888.13
2018-05-29T00:33:06.688Z,888.10
2018-05-29T00:34:06.680Z,888.09
2018-05-29T00:35:06.674Z,888.11
2018-05-29T00:36:06.664Z,888.13
2018-05-29T00:37:06.654Z,888.09
2018-05-29T00:38:06.648Z,888.06
2018-05-29T00:39:06.642Z,888.08
2018-05-29T00:40:06.628Z,888.06
2018-05-29T00:41:06.625Z,888.03
2018-05-29T00:42:06.611Z,888.03
2018-05-29T00:43:06.601Z,888.03
2018-05-29T00:44:06.600Z,888.03
2018-05-29T00:45:06.590Z,888.02
2018-05-29T00:46:06.590Z,888.05
2018-05-29T00:47:06.577Z,888.03
2018-05-29T00:48:06.581Z,888.09
2018-05-29T00:49:06.561Z,888.08
2018-05-29T00:50:06.553Z,888.12
2018-05-29T00:51:06.540Z,888.12
2018-05-29T00:52:06.532Z,888.11
2018-05-29T00:53:06.527Z,888.13
2018-05-29T00:54:06.518Z,888.10
2018-05-29T00:55:06.504Z,888.11
2018-05-29T00:56:06.499Z,888.07
2018-05-29T00:57:06.488Z,888.09
2018-05-29T00:58:06.487Z,888.07
2018-05-29T00:59:06.480Z,888.04
2018-05-29T01:00:06.471Z,888.03
2018-05-29T01:01:06.461Z,888.04
2018-05-29T01:02:06.453Z,888.07
2018-05-29T01:03:06.440Z,888.06
2018-05-29T01:04:06.440Z,888.06
2018-05-29T01:05:06.424Z,888.07
2018-05-29T01:06:06.420Z,888.03
2018-05-29T01:07:06.436Z,888.09
2018-05-29T01:08:06.403Z,888.13
2018-05-29T01:09:06.395Z,888.11
2018-05-29T01:10:06.391Z,888.12
2018-05-29T01:11:06.377Z,888.10
2018-05-29T01:12:06.367Z,888.11
2018-05-29T01:13:06.361Z,888.12
2018-05-29T01:14:06.347Z,888.09
2018-05-29T01:15:06.340Z,888.04
2018-05-29T01:16:06.335Z,888.06
2018-05-29T01:17:06.325Z,888.07
2018-05-29T01:18:06.322Z,888.07
2018-05-29T01:19:06.312Z,888.02
2018-05-29T01:20:06.302Z,888.05
2018-05-29T01:21:06.294Z,888.08
2018-05-29T01:22:06.280Z,888.07
2018-05-29T01:23:06.275Z,888.08
2018-05-29T01:24:06.268Z,888.06
2018-05-29T01:25:06.255Z,888.08
2018-05-29T01:26:06.256Z,888.08
2018-05-29T01:27:06.248Z,888.09
2018-05-29T01:28:06.239Z,888.07
2018-05-29T01:29:06.229Z,888.08
2018-05-29T01:30:06.218Z,888.04
2018-05-29T01:31:06.208Z,888.05
2018-05-29T01:32:06.205Z,888.03
2018-05-29T01:33:06.198Z,888.06
2018-05-29T01:34:06.187Z,888.01
2018-05-29T01:35:06.180Z,888.05
2018-05-29T01:36:06.168Z,888.08
2018-05-29T01:37:06.166Z,888.02
2018-05-29T01:38:06.150Z,887.99
2018-05-29T01:39:06.149Z,888.00
2018-05-29T01:40:06.137Z,888.01
2018-05-29T01:41:06.129Z,887.99
2018-05-29T01:42:06.117Z,887.99
2018-05-29T01:43:06.110Z,887.96
2018-05-29T01:44:06.110Z,888.00
2018-05-29T01:45:06.102Z,887.97
2018-05-29T01:46:06.086Z,887.97
2018-05-29T01:47:06.083Z,887.96
2018-05-29T01:48:06.071Z,887.99
2018-05-29T01:49:06.063Z,887.97
2018-05-29T01:50:06.054Z,887.95
2018-05-29T01:51:06.047Z,887.96
2018-05-29T01:52:06.039Z,887.92
2018-05-29T01:53:06.026Z,887.92
2018-05-29T01:54:06.028Z,887.90
2018-05-29T01:55:06.010Z,887.90
2018-05-29T01:56:06.003Z,887.87
2018-05-29T01:57:05.997Z,887.86
2018-05-29T01:58:05.987Z,887.87
2018-05-29T01:59:05.982Z,887.88
2018-05-29T02:00:05.972Z,887.85
2018-05-29T02:01:05.964Z,887.84
2018-05-29T02:02:05.957Z,887.83
2018-05-29T02:03:05.951Z,887.82
2018-05-29T02:04:05.941Z,887.82
2018-05-29T02:05:05.928Z,887.77
2018-05-29T02:06:05.922Z,887.75
2018-05-29T02:07:05.922Z,887.77
2018-05-29T02:08:05.913Z,887.76
2018-05-29T02:09:05.897Z,887.75
2018-05-29T02:10:05.888Z,887.76
2018-05-29T02:11:05.878Z,887.77
2018-05-29T02:12:05.873Z,887.78
2018-05-29T02:13:05.865Z,887.79
2018-05-29T02:14:05.857Z,887.77
2018-05-29T02:15:05.849Z,887.76
2018-05-29T02:16:05.840Z,887.77
2018-05-29T02:17:05.832Z,887.76
2018-05-29T02:18:05.820Z,887.75
2018-05-29T02:19:05.813Z,887.76
2018-05-29T02:20:05.804Z,887.74
2018-05-29T02:21:05.797Z,887.74
2018-05-29T02:22:05.793Z,887.74
2018-05-29T02:23:05.783Z,887.77
2018-05-29T02:24:05.778Z,887.77
2018-05-29T02:25:05.759Z,887.76
2018-05-29T02:26:05.755Z,887.79
2018-05-29T02:27:05.752Z,887.80
2018-05-29T02:28:05.740Z,887.76
2018-05-29T02:29:05.736Z,887.78
2018-05-29T02:30:05.723Z,887.79
2018-05-29T02:31:05.719Z,887.81
2018-05-29T02:32:05.709Z,887.77
2018-05-29T02:33:05.696Z,887.83
2018-05-29T02:34:05.690Z,887.82
2018-05-29T02:35:05.683Z,887.84
2018-05-29T02:36:05.676Z,887.81
2018-05-29T02:37:05.663Z,887.80
2018-05-29T02:38:05.659Z,887.83
2018-05-29T02:39:05.651Z,887.87
2018-05-29T02:40:05.642Z,887.83
2018-05-29T02:41:05.629Z,887.87
2018-05-29T02:42:05.626Z,887.87
2018-05-29T02:43:05.615Z,887.88
2018-05-29T02:44:05.608Z,887.84
2018-05-29T02:45:05.609Z,887.85
2018-05-29T02:46:05.600Z,887.89
2018-05-29T02:47:05.585Z,887.86
2018-05-29T02:48:05.574Z,887.87
2018-05-29T02:49:05.571Z,887.91
2018-05-29T02:50:05.554Z,887.90
2018-05-29T02:51:05.547Z,887.91
2018-05-29T02:52:05.542Z,887.90
2018-05-29T02:53:05.529Z,887.95
2018-05-29T02:54:05.531Z,887.95
2018-05-29T02:55:05.515Z,887.98
2018-05-29T02:56:05.508Z,887.97
2018-05-29T02:57:05.505Z,887.96
2018-05-29T02:58:05.495Z,887.96
2018-05-29T02:59:05.480Z,887.95
2018-05-29T03:00:05.474Z,887.99
2018-05-29T03:01:05.469Z,887.95
2018-05-29T03:02:05.460Z,887.98
2018-05-29T03:03:05.452Z,888.01
2018-05-29T03:04:05.445Z,888.02
2018-05-29T03:05:05.428Z,888.01
2018-05-29T03:06:05.424Z,888.03
2018-05-29T03:07:05.421Z,888.01
2018-05-29T03:08:05.424Z,888.03
2018-05-29T03:09:05.401Z,888.03
2018-05-29T03:10:05.400Z,888.04
2018-05-29T03:11:05.385Z,888.01
2018-05-29T03:12:05.375Z,888.00
2018-05-29T03:13:05.363Z,888.02
2018-05-29T03:14:05.355Z,888.05
2018-05-29T03:15:05.348Z,888.07
2018-05-29T03:16:05.340Z,888.09
2018-05-29T03:17:05.333Z,888.08
2018-05-29T03:18:05.324Z,888.06
2018-05-29T03:19:05.316Z,888.07
2018-05-29T03:20:05.314Z,888.06
2018-05-29T03:21:05.303Z,888.05
2018-05-29T03:22:05.293Z,888.02
2018-05-29T03:23:05.283Z,888.02
2018-05-29T03:24:05.281Z,888.03
2018-05-29T03:25:05.265Z,888.01
2018-05-29T03:26:05.253Z,887.98
2018-05-29T03:27:05.247Z,887.97
2018-05-29T03:28:05.240Z,887.98
2018-05-29T03:29:05.232Z,887.95
2018-05-29T03:30:05.226Z,887.96
2018-05-29T03:31:05.225Z,887.95
2018-05-29T03:32:05.210Z,887.94
2018-05-29T03:33:05.200Z,887.88
2018-05-29T03:34:05.193Z,887.87
2018-05-29T03:35:05.181Z,887.88
2018-05-29T03:36:05.206Z,887.88
2018-05-29T03:37:05.171Z,887.84
2018-05-29T03:38:05.162Z,887.83
2018-05-29T03:39:05.150Z,887.87
2018-05-29T03:40:05.137Z,887.85
2018-05-29T03:41:05.125Z,887.86
2018-05-29T03:42:05.123Z,887.87
2018-05-29T03:43:05.113Z,887.90
2018-05-29T03:44:05.125Z,887.87
2018-05-29T03:45:05.101Z,887.89
2018-05-29T03:46:05.087Z,887.88
2018-05-29T03:47:05.081Z,887.91
2018-05-29T03:48:05.069Z,887.90
2018-05-29T03:49:05.068Z,887.94
2018-05-29T03:50:05.049Z,887.90
2018-05-29T03:51:05.047Z,887.89
2018-05-29T03:52:05.039Z,887.89
2018-05-29T03:53:05.027Z,887.87
2018-05-29T03:54:05.027Z,887.90
2018-05-29T03:55:05.012Z,887.83
2018-05-29T03:56:05.006Z,887.85
2018-05-29T03:57:04.992Z,887.88
2018-05-29T03:58:04.994Z,887.84
2018-05-29T03:59:04.976Z,887.80
2018-05-29T04:00:04.972Z,887.82
2018-05-29T04:01:04.960Z,887.86
2018-05-29T04:02:04.956Z,887.84
2018-05-29T04:03:04.941Z,887.88
2018-05-29T04:04:04.929Z,887.86
2018-05-29T04:05:04.925Z,887.86
2018-05-29T04:06:04.915Z,887.81
2018-05-29T04:07:04.905Z,887.83
2018-05-29T04:08:04.903Z,887.83
2018-05-29T04:09:04.891Z,887.87
2018-05-29T04:10:04.884Z,887.88
2018-05-29T04:11:04.874Z,887.85
2018-05-29T04:12:04.862Z,887.89
2018-05-29T04:13:04.851Z,887.82
2018-05-29T04:14:04.850Z,887.82
2018-05-29T04:15:04.835Z,887.83
2018-05-29T04:16:04.826Z,887.78
2018-05-29T04:17:04.847Z,887.81
2018-05-29T04:18:04.811Z,887.84
2018-05-29T04:19:04.801Z,887.84
2018-05-29T04:20:07.330Z,887.79
2018-05-29T04:21:04.786Z,887.87
2018-05-29T04:22:04.776Z,887.88
2018-05-29T04:23:04.768Z,887.89
2018-05-29T04:24:04.760Z,887.90
2018-05-29T04:25:04.751Z,887.91
2018-05-29T04:26:04.736Z,887.90
2018-05-29T04:27:04.736Z,887.92
2018-05-29T04:28:04.729Z,887.93
2018-05-29T04:29:04.720Z,887.91
2018-05-29T04:30:04.703Z,887.91
2018-05-29T04:31:04.694Z,887.91
2018-05-29T04:32:04.689Z,887.91
2018-05-29T04:33:04.678Z,887.91
2018-05-29T04:34:04.672Z,887.88
2018-05-29T04:35:04.666Z,887.87
2018-05-29T04:36:04.651Z,887.89
2018-05-29T04:37:04.640Z,887.87
2018-05-29T04:38:04.632Z,887.85
2018-05-29T04:39:04.624Z,887.86
2018-05-29T04:40:04.614Z,887.80
2018-05-29T04:41:04.603Z,887.85
2018-05-29T04:42:04.606Z,887.85
2018-05-29T04:43:04.589Z,887.81
2018-05-29T04:44:04.581Z,887.84
2018-05-29T04:45:04.572Z,887.84
2018-05-29T04:46:04.559Z,887.84
2018-05-29T04:47:04.600Z,887.83
2018-05-29T04:48:04.544Z,887.88
2018-05-29T04:49:04.536Z,887.80
2018-05-29T04:50:04.528Z,887.77
2018-05-29T04:51:04.515Z,887.79
2018-05-29T04:52:04.507Z,887.77
2018-05-29T04:53:04.499Z,887.76
2018-05-29T04:54:04.493Z,887.76
2018-05-29T04:55:04.486Z,887.77
2018-05-29T04:56:04.473Z,887.81
2018-05-29T04:57:04.467Z,887.79
2018-05-29T04:58:04.457Z,887.78
2018-05-29T04:59:04.448Z,887.80
2018-05-29T05:00:04.436Z,887.76
2018-05-29T05:01:04.427Z,887.81
2018-05-29T05:02:04.427Z,887.77
2018-05-29T05:03:04.419Z,887.77
2018-05-29T05:04:04.404Z,887.82
2018-05-29T05:05:04.392Z,887.82
2018-05-29T05:06:04.378Z,887.78
2018-05-29T05:07:04.379Z,887.81
2018-05-29T05:08:04.367Z,887.78
2018-05-29T05:09:04.359Z,887.77
2018-05-29T05:10:04.349Z,887.75
2018-05-29T05:11:04.339Z,887.73
2018-05-29T05:12:04.333Z,887.73
2018-05-29T05:13:04.321Z,887.76
2018-05-29T05:14:04.315Z,887.76
2018-05-29T05:15:04.302Z,887.74
2018-05-29T05:16:04.299Z,887.78
2018-05-29T05:17:04.290Z,887.76
2018-05-29T05:18:04.286Z,887.77
2018-05-29T05:19:04.269Z,887.75
2018-05-29T05:20:04.260Z,887.75
2018-05-29T05:21:04.249Z,887.78
2018-05-29T05:22:04.243Z,887.81
2018-05-29T05:23:04.236Z,887.85
2018-05-29T05:24:04.230Z,887.85
2018-05-29T05:25:04.220Z,887.86
2018-05-29T05:26:04.210Z,887.87
2018-05-29T05:27:04.203Z,887.88
2018-05-29T05:28:04.191Z,887.85
2018-05-29T05:29:04.184Z,887.88
2018-05-29T05:30:04.227Z,887.89
2018-05-29T05:31:04.163Z,887.92
2018-05-29T05:32:04.163Z,887.92
2018-05-29T05:33:04.147Z,887.86
2018-05-29T05:34:04.140Z,887.84
2018-05-29T05:35:04.129Z,887.88
2018-05-29T05:36:04.127Z,887.90
2018-05-29T05:37:04.114Z,887.92
2018-05-29T05:38:04.103Z,887.91
2018-05-29T05:39:04.097Z,887.91
2018-05-29T05:40:04.097Z,887.91
2018-05-29T05:41:04.082Z,887.93
2018-05-29T05:42:04.072Z,887.92
2018-05-29T05:43:04.062Z,887.92
2018-05-29T05:44:04.055Z,887.88
2018-05-29T05:45:04.048Z,887.85
2018-05-29T05:46:04.052Z,887.87
2018-05-29T05:47:04.026Z,887.81
2018-05-29T05:48:04.026Z,887.81
2018-05-29T05:49:04.009Z,887.84
2018-05-29T05:50:04.003Z,887.83
2018-05-29T05:51:03.995Z,887.82
2018-05-29T05:52:03.983Z,887.82
2018-05-29T05:53:03.977Z,887.80
2018-05-29T05:54:03.971Z,887.77
2018-05-29T05:55:03.956Z,887.77
2018-05-29T05:56:03.953Z,887.81
2018-05-29T05:57:03.950Z,887.81
2018-05-29T05:58:03.936Z,887.79
2018-05-29T05:59:03.928Z,887.79
2018-05-29T06:00:03.914Z,887.79
2018-05-29T06:01:03.913Z,887.82
2018-05-29T06:02:03.896Z,887.82
2018-05-29T06:03:03.895Z,887.82
2018-05-29T06:04:03.888Z,887.86
2018-05-29T06:05:03.876Z,887.87
2018-05-29T06:06:03.866Z,887.86
2018-05-29T06:07:03.857Z,887.87
2018-05-29T06:08:03.845Z,887.90
2018-05-29T06:09:03.837Z,887.92
2018-05-29T06:10:03.832Z,887.92
2018-05-29T06:11:03.821Z,887.91
2018-05-29T06:12:03.816Z,887.87
2018-05-29T06:13:03.806Z,887.89
2018-05-29T06:14:03.804Z,887.87
2018-05-29T06:15:03.786Z,887.85
2018-05-29T06:16:03.778Z,887.85
2018-05-29T06:17:03.776Z,887.83
2018-05-29T06:18:03.764Z,887.78
2018-05-29T06:19:03.755Z,887.84
2018-05-29T06:20:03.751Z,887.79
2018-05-29T06:21:03.735Z,887.78
2018-05-29T06:22:03.731Z,887.77
2018-05-29T06:23:03.718Z,887.82
2018-05-29T06:24:03.716Z,887.78
2018-05-29T06:25:03.708Z,887.78
2018-05-29T06:26:03.698Z,887.74
2018-05-29T06:27:03.697Z,887.74
2018-05-29T06:28:03.684Z,887.72
2018-05-29T06:29:03.671Z,887.70
2018-05-29T06:30:03.669Z,887.72
2018-05-29T06:31:03.658Z,887.76
2018-05-29T06:32:03.649Z,887.75
2018-05-29T06:33:03.644Z,887.73
2018-05-29T06:34:03.637Z,887.73
2018-05-29T06:35:03.628Z,887.75
2018-05-29T06:36:03.621Z,887.80
2018-05-29T06:37:03.612Z,887.85
2018-05-29T06:38:03.601Z,887.83
2018-05-29T06:39:03.597Z,887.85
2018-05-29T06:40:03.590Z,887.86
2018-05-29T06:41:03.593Z,887.93
2018-05-29T06:42:03.572Z,887.92
2018-05-29T06:43:03.563Z,887.94
2018-05-29T06:44:03.556Z,887.94
2018-05-29T06:45:03.627Z,887.96
2018-05-29T06:46:03.535Z,887.99
2018-05-29T06:47:03.533Z,887.96
2018-05-29T06:48:03.525Z,888.00
2018-05-29T06:49:03.522Z,887.99
2018-05-29T06:50:03.509Z,887.98
2018-05-29T06:51:03.500Z,887.96
2018-05-29T06:52:03.494Z,887.98
2018-05-29T06:53:03.487Z,888.00
2018-05-29T06:54:03.476Z,887.97
2018-05-29T06:55:03.474Z,887.94
2018-05-29T06:56:03.469Z,887.92
2018-05-29T06:57:03.459Z,887.92
2018-05-29T06:58:03.439Z,887.88
2018-05-29T06:59:03.446Z,887.86
2018-05-29T07:00:03.434Z,887.84
2018-05-29T07:01:03.424Z,887.84
2018-05-29T07:02:03.418Z,887.82
2018-05-29T07:03:03.414Z,887.83
2018-05-29T07:04:03.404Z,887.82
2018-05-29T07:05:03.402Z,887.78
2018-05-29T07:06:03.388Z,887.82
2018-05-29T07:07:03.436Z,887.84
2018-05-29T07:08:03.373Z,887.81
2018-05-29T07:09:03.365Z,887.84
2018-05-29T07:10:03.355Z,887.81
2018-05-29T07:11:03.350Z,887.83
2018-05-29T07:12:03.345Z,887.82
2018-05-29T07:13:03.337Z,887.83
2018-05-29T07:14:03.327Z,887.83
2018-05-29T07:15:03.318Z,887.83
2018-05-29T07:16:03.314Z,887.81
2018-05-29T07:17:03.307Z,887.78
2018-05-29T07:18:03.298Z,887.74
2018-05-29T07:19:03.288Z,887.73
2018-05-29T07:20:03.280Z,887.76
2018-05-29T07:21:03.274Z,887.77
2018-05-29T07:22:03.266Z,887.79
2018-05-29T07:23:03.260Z,887.78
2018-05-29T07:24:03.251Z,887.75
2018-05-29T07:25:03.245Z,887.75
2018-05-29T07:26:03.230Z,887.73
2018-05-29T07:27:03.226Z,887.75
2018-05-29T07:28:03.224Z,887.70
2018-05-29T07:29:03.216Z,887.66
2018-05-29T07:30:03.210Z,887.65
2018-05-29T07:31:03.197Z,887.62
2018-05-29T07:32:03.191Z,887.67
2018-05-29T07:33:03.183Z,887.61
2018-05-29T07:34:03.171Z,887.58
2018-05-29T07:35:03.169Z,887.59
2018-05-29T07:36:03.157Z,887.57
2018-05-29T07:37:03.147Z,887.55
2018-05-29T07:38:03.143Z,887.58
2018-05-29T07:39:03.137Z,887.56
2018-05-29T07:40:03.130Z,887.53
2018-05-29T07:41:03.132Z,887.53
2018-05-29T07:42:03.115Z,887.51
2018-05-29T07:43:03.110Z,887.49
2018-05-29T07:44:03.098Z,887.50
2018-05-29T07:45:03.094Z,887.49
2018-05-29T07:46:03.086Z,887.51
2018-05-29T07:47:03.075Z,887.49
2018-05-29T07:48:03.065Z,887.51
2018-05-29T07:49:03.061Z,887.51
2018-05-29T07:50:03.054Z,887.44
2018-05-29T07:51:03.044Z,887.42
2018-05-29T07:52:03.100Z,887.41
2018-05-29T07:53:03.025Z,887.40
2018-05-29T07:54:03.015Z,887.41
2018-05-29T07:55:03.013Z,887.39
2018-05-29T07:56:03.008Z,887.41
2018-05-29T07:57:02.997Z,887.40
2018-05-29T07:58:02.986Z,887.41
2018-05-29T07:59:02.983Z,887.36
2018-05-29T08:00:02.980Z,887.38
2018-05-29T08:01:02.964Z,887.40
2018-05-29T08:02:02.961Z,887.40
2018-05-29T08:03:02.951Z,887.40
2018-05-29T08:04:02.946Z,887.39
2018-05-29T08:05:02.936Z,887.43
2018-05-29T08:06:02.930Z,887.45
2018-05-29T08:07:02.925Z,887.39
2018-05-29T08:08:02.916Z,887.36
2018-05-29T08:09:02.927Z,887.41
2018-05-29T08:10:02.900Z,887.39
2018-05-29T08:11:02.898Z,887.38
2018-05-29T08:12:02.885Z,887.36
2018-05-29T08:13:02.879Z,887.41
2018-05-29T08:14:02.873Z,887.39
2018-05-29T08:15:02.863Z,887.45
2018-05-29T08:16:02.856Z,887.41
2018-05-29T08:17:02.849Z,887.39
2018-05-29T08:18:02.839Z,887.37
2018-05-29T08:19:02.836Z,887.37
2018-05-29T08:20:02.828Z,887.33
2018-05-29T08:21:02.825Z,887.32
2018-05-29T08:22:02.812Z,887.30
2018-05-29T08:23:02.808Z,887.31
2018-05-29T08:24:02.802Z,887.33
2018-05-29T08:25:02.792Z,887.31
2018-05-29T08:26:02.785Z,887.33
2018-05-29T08:27:02.779Z,887.30
2018-05-29T08:28:02.774Z,887.31
2018-05-29T08:29:02.768Z,887.31
2018-05-29T08:30:02.767Z,887.32
2018-05-29T08:31:02.790Z,887.34
2018-05-29T08:32:02.749Z,887.35
2018-05-29T08:33:02.744Z,887.38
2018-05-29T08:34:02.732Z,887.30
2018-05-29T08:35:02.728Z,887.35
2018-05-29T08:36:02.718Z,887.30
2018-05-29T08:37:02.708Z,887.30
2018-05-29T08:38:02.704Z,887.36
2018-05-29T08:39:02.697Z,887.37
2018-05-29T08:40:02.693Z,887.30
2018-05-29T08:41:02.681Z,887.30
2018-05-29T08:42:02.675Z,887.28
2018-05-29T08:43:02.668Z,887.31
2018-05-29T08:44:02.666Z,887.28
2018-05-29T08:45:02.659Z,887.26
2018-05-29T08:46:02.654Z,887.31
2018-05-29T08:47:02.642Z,887.30
2018-05-29T08:48:02.637Z,887.23
2018-05-29T08:49:02.630Z,887.27
2018-05-29T08:50:02.617Z,887.23
2018-05-29T08:51:02.613Z,887.22
2018-05-29T08:52:02.609Z,887.24
2018-05-29T08:53:02.603Z,887.26
2018-05-29T08:54:02.594Z,887.26
2018-05-29T08:55:02.596Z,887.24
2018-05-29T08:56:02.583Z,887.24
2018-05-29T08:57:02.574Z,887.29
2018-05-29T08:58:02.563Z,887.25
2018-05-29T08:59:02.558Z,887.28
2018-05-29T09:00:02.553Z,887.27
2018-05-29T09:01:02.544Z,887.23
2018-05-29T09:02:02.539Z,887.27
2018-05-29T09:03:02.539Z,887.24
2018-05-29T09:04:02.563Z,887.24
2018-05-29T09:05:02.526Z,887.27
2018-05-29T09:06:02.524Z,887.22
2018-05-29T09:07:02.512Z,887.21
2018-05-29T09:08:02.504Z,887.21
2018-05-29T09:09:02.493Z,887.24
2018-05-29T09:10:02.487Z,887.19
2018-05-29T09:11:02.481Z,887.20
2018-05-29T09:12:02.482Z,887.18
2018-05-29T09:13:02.467Z,887.19
2018-05-29T09:14:02.468Z,887.18
2018-05-29T09:15:02.459Z,887.13
2018-05-29T09:16:02.453Z,887.10
2018-05-29T09:17:02.445Z,887.06
2018-05-29T09:18:02.442Z,887.11
2018-05-29T09:19:02.482Z,887.06
2018-05-29T09:20:02.465Z,887.08
2018-05-29T09:21:02.420Z,887.08
2018-05-29T09:22:02.415Z,887.10
2018-05-29T09:23:02.411Z,887.07
2018-05-29T09:24:02.402Z,887.08
2018-05-29T09:25:02.398Z,887.08
2018-05-29T09:26:02.442Z,887.05
2018-05-29T09:27:02.385Z,887.04
2018-05-29T09:28:02.376Z,887.05
2018-05-29T09:29:02.369Z,887.09
2018-05-29T09:30:02.364Z,887.07
2018-05-29T09:31:02.359Z,887.03
2018-05-29T09:32:02.419Z,887.02
2018-05-29T09:33:02.349Z,886.96
2018-05-29T09:34:02.344Z,886.99
2018-05-29T09:35:02.337Z,886.98
2018-05-29T09:36:02.329Z,887.01
2018-05-29T09:37:02.324Z,886.98
2018-05-29T09:38:02.321Z,886.98
2018-05-29T09:39:02.312Z,886.96
2018-05-29T09:40:02.309Z,886.99
2018-05-29T09:41:02.298Z,887.00
2018-05-29T09:42:02.290Z,886.95
2018-05-29T09:43:02.283Z,886.93
2018-05-29T09:44:02.280Z,886.93
2018-05-29T09:45:02.267Z,886.97
2018-05-29T09:46:02.320Z,887.04
2018-05-29T09:47:02.261Z,887.03
2018-05-29T09:48:02.252Z,887.02
2018-05-29T09:49:02.250Z,887.01
2018-05-29T09:50:02.241Z,886.99
2018-05-29T09:51:02.253Z,886.98
2018-05-29T09:52:02.228Z,886.96
2018-05-29T09:53:02.225Z,886.97
2018-05-29T09:54:02.219Z,886.94
2018-05-29T09:55:02.208Z,886.94
2018-05-29T09:56:02.206Z,886.94
2018-05-29T09:57:02.201Z,886.97
2018-05-29T09:58:02.189Z,886.95
2018-05-29T09:59:02.180Z,886.96
2018-05-29T10:00:02.184Z,886.93
2018-05-29T10:01:02.169Z,886.91
2018-05-29T10:02:02.175Z,886.89
2018-05-29T10:03:02.157Z,886.93
2018-05-29T10:04:02.153Z,886.96
2018-05-29T10:05:02.158Z,886.90
2018-05-29T10:06:02.140Z,886.93
2018-05-29T10:07:02.183Z,886.91
2018-05-29T10:08:02.130Z,886.88
2018-05-29T10:09:02.120Z,886.87
2018-05-29T10:10:02.119Z,886.88
2018-05-29T10:11:02.114Z,886.87
2018-05-29T10:12:02.103Z,886.86
2018-05-29T10:13:02.090Z,886.91
2018-05-29T10:14:02.083Z,886.92
2018-05-29T10:15:02.084Z,886.90
2018-05-29T10:16:02.077Z,886.90
2018-05-29T10:17:02.095Z,886.91
2018-05-29T10:18:02.063Z,886.90
2018-05-29T10:19:02.058Z,886.91
2018-05-29T10:20:02.053Z,886.92
2018-05-29T10:21:02.046Z,886.93
2018-05-29T10:22:02.039Z,886.93
2018-05-29T10:23:02.034Z,886.98
2018-05-29T10:24:02.027Z,886.96
2018-05-29T10:25:02.023Z,886.96
2018-05-29T10:26:02.018Z,886.93
2018-05-29T10:27:02.004Z,886.92
2018-05-29T10:28:02.000Z,886.93
2018-05-29T10:29:01.994Z,886.95
2018-05-29T10:30:01.990Z,887.00
2018-05-29T10:31:01.984Z,886.96
2018-05-29T10:32:01.974Z,886.93
2018-05-29T10:33:01.970Z,886.90
2018-05-29T10:34:01.959Z,886.91
2018-05-29T10:35:01.961Z,886.97
2018-05-29T10:36:01.955Z,886.96
2018-05-29T10:37:01.945Z,886.99
2018-05-29T10:38:01.942Z,886.98
2018-05-29T10:39:01.938Z,886.98
2018-05-29T10:40:01.930Z,886.96
2018-05-29T10:41:01.922Z,886.97
2018-05-29T10:42:01.914Z,886.98
2018-05-29T10:43:01.905Z,887.04
2018-05-29T10:44:01.900Z,887.05
2018-05-29T10:45:01.893Z,887.07
2018-05-29T10:46:01.897Z,887.07
2018-05-29T10:47:01.888Z,887.06
2018-05-29T10:48:01.876Z,887.08
2018-05-29T10:49:01.872Z,887.06
2018-05-29T10:50:01.876Z,887.05
2018-05-29T10:51:01.859Z,887.09
2018-05-29T10:52:01.849Z,887.08
2018-05-29T10:53:01.839Z,887.03
2018-05-29T10:54:01.842Z,887.07
2018-05-29T10:55:01.828Z,887.05
2018-05-29T10:56:01.825Z,887.06
2018-05-29T10:57:01.813Z,887.11
2018-05-29T10:58:01.812Z,887.18
2018-05-29T10:59:01.808Z,887.11
2018-05-29T11:00:01.799Z,887.14
2018-05-29T11:01:01.795Z,887.16
2018-05-29T11:02:01.784Z,887.12
2018-05-29T11:03:01.777Z,887.07
2018-05-29T11:04:01.775Z,887.02
2018-05-29T11:05:01.766Z,887.00
2018-05-29T11:06:01.764Z,887.02
2018-05-29T11:07:01.752Z,887.02
2018-05-29T11:08:01.759Z,887.01
2018-05-29T11:09:01.736Z,887.05
2018-05-29T11:10:01.736Z,887.08
2018-05-29T11:11:01.732Z,887.03
2018-05-29T11:12:01.724Z,887.05
2018-05-29T11:13:01.710Z,887.03
2018-05-29T11:14:01.710Z,887.03
2018-05-29T11:15:01.702Z,887.02
2018-05-29T11:16:01.700Z,886.99
2018-05-29T11:17:01.691Z,887.02
2018-05-29T11:18:01.685Z,886.98
2018-05-29T11:19:01.683Z,886.97
2018-05-29T11:20:01.699Z,887.00
2018-05-29T11:21:01.663Z,887.02
2018-05-29T11:22:01.660Z,886.98
2018-05-29T11:23:01.649Z,886.98
2018-05-29T11:24:01.648Z,886.96
2018-05-29T11:25:01.643Z,886.97
2018-05-29T11:26:01.630Z,886.95
2018-05-29T11:27:01.631Z,886.97
2018-05-29T11:28:01.625Z,886.92
2018-05-29T11:29:01.615Z,886.93
2018-05-29T11:30:01.609Z,886.92
2018-05-29T11:31:01.599Z,886.94
2018-05-29T11:32:01.596Z,886.95
2018-05-29T11:33:01.589Z,886.91
2018-05-29T11:34:01.588Z,886.91
2018-05-29T11:35:01.574Z,886.90
2018-05-29T11:36:01.574Z,886.94
2018-05-29T11:37:01.564Z,886.92
2018-05-29T11:38:01.559Z,886.93
2018-05-29T11:39:01.552Z,886.93
2018-05-29T11:40:01.556Z,886.93
2018-05-29T11:41:01.543Z,886.91
2018-05-29T11:42:01.531Z,886.94
2018-05-29T11:43:01.528Z,886.98
2018-05-29T11:44:01.521Z,887.01
2018-05-29T11:45:01.512Z,886.94
2018-05-29T11:46:01.506Z,886.90
2018-05-29T11:47:01.504Z,887.02
2018-05-29T11:48:01.495Z,887.00
2018-05-29T11:49:01.490Z,886.90
2018-05-29T11:50:01.482Z,886.89
2018-05-29T11:51:01.472Z,886.90
2018-05-29T11:52:01.470Z,886.99
2018-05-29T11:53:01.462Z,886.85
2018-05-29T11:54:01.457Z,886.85
2018-05-29T11:55:01.459Z,886.80
2018-05-29T11:56:01.448Z,886.78
2018-05-29T11:57:01.434Z,886.88
2018-05-29T11:58:01.430Z,886.80
2018-05-29T11:59:01.426Z,886.74
2018-05-29T12:00:01.422Z,886.76
2018-05-29T12:01:01.415Z,886.76
2018-05-29T12:02:01.408Z,886.75
2018-05-29T12:03:01.405Z,886.75
2018-05-29T12:04:01.390Z,886.79
2018-05-29T12:05:01.390Z,886.72
2018-05-29T12:06:01.385Z,886.68
2018-05-29T12:07:01.377Z,886.69
2018-05-29T12:08:01.378Z,886.65
2018-05-29T12:09:01.364Z,886.62
2018-05-29T12:10:01.357Z,886.62
2018-05-29T12:11:01.348Z,886.60
2018-05-29T12:12:01.344Z,886.60
2018-05-29T12:13:01.339Z,886.71
2018-05-29T12:14:01.332Z,886.65
2018-05-29T12:15:01.333Z,886.71
2018-05-29T12:16:01.321Z,886.62
2018-05-29T12:17:01.315Z,886.62
2018-05-29T12:18:01.313Z,886.66
2018-05-29T12:19:01.301Z,886.66
2018-05-29T12:20:01.299Z,886.70
2018-05-29T12:21:01.290Z,886.67
2018-05-29T12:22:01.280Z,886.65
2018-05-29T12:23:01.276Z,886.67
2018-05-29T12:24:01.272Z,886.63
2018-05-29T12:25:01.265Z,886.61
2018-05-29T12:26:01.258Z,886.62
2018-05-29T12:27:01.257Z,886.62
2018-05-29T12:28:01.247Z,886.62